createdAt,value
2018-12-06T00:01:06.331Z,12.87
2018-12-06T00:03:38.577Z,11.57
2018-12-06T00:06:10.025Z,17.63
2018-12-06T00:08:39.828Z,12.97
2018-12-06T00:11:15.347Z,14.47
2018-12-06T00:13:44.202Z,19.50
2018-12-06T00:16:13.130Z,11.10
2018-12-06T00:18:41.962Z,14.33
2018-12-06T00:21:16.898Z,14.70
2018-12-06T00:23:46.578Z,12.80
2018-12-06T00:26:15.522Z,6.17
2018-12-06T00:28:44.496Z,11.40
2018-12-06T00:31:14.078Z,11.23
2018-12-06T00:33:42.890Z,10.37
2018-12-06T00:36:11.867Z,11.27
2018-12-06T00:38:40.901Z,13.13
2018-12-06T00:41:09.974Z,6.67
2018-12-06T00:43:38.914Z,9.10
2018-12-06T00:46:07.898Z,10.27
2018-12-06T00:48:36.803Z,14.63
2018-12-06T00:51:05.675Z,13.43
2018-12-06T00:53:34.901Z,9.27
2018-12-06T00:56:04.671Z,10.10
2018-12-06T00:58:36.020Z,13.93
2018-12-06T01:01:06.485Z,12.67
2018-12-06T01:03:39.300Z,6.57
2018-12-06T01:06:08.235Z,9.60
2018-12-06T01:08:38.618Z,11.33
2018-12-06T01:11:09.694Z,9.07
2018-12-06T01:13:38.534Z,9.43
2018-12-06T01:16:07.730Z,9.73
2018-12-06T01:18:38.193Z,7.47
2018-12-06T01:21:07.954Z,10.60
2018-12-06T01:23:44.640Z,8.07
2018-12-06T01:26:19.012Z,8.60
2018-12-06T01:28:49.370Z,12.87
2018-12-06T01:31:24.268Z,15.33
2018-12-06T01:33:53.703Z,12.27
2018-12-06T01:36:24.028Z,6.90
2018-12-06T01:38:53.438Z,6.30
2018-12-06T01:41:22.426Z,9.27
2018-12-06T01:43:55.927Z,9.57
2018-12-06T01:46:29.808Z,8.53
2018-12-06T01:48:59.282Z,6.97
2018-12-06T01:51:29.837Z,5.23
2018-12-06T01:53:58.650Z,7.20
2018-12-06T01:56:27.762Z,6.23
2018-12-06T01:59:00.219Z,5.57
2018-12-06T02:01:30.102Z,6.20
2018-12-06T02:04:01.108Z,7.47
2018-12-06T02:06:32.270Z,7.37
2018-12-06T02:09:02.796Z,7.13
2018-12-06T02:11:33.698Z,5.27
2018-12-06T02:14:07.196Z,8.97
2018-12-06T02:16:36.726Z,7.83
2018-12-06T02:19:05.594Z,10.27
2018-12-06T02:21:34.498Z,6.43
2018-12-06T02:24:06.474Z,9.60
2018-12-06T02:26:35.794Z,9.20
2018-12-06T02:29:06.904Z,9.30
2018-12-06T02:31:36.791Z,10.23
2018-12-06T02:34:12.218Z,5.23
2018-12-06T02:36:41.109Z,7.57
2018-12-06T02:39:10.067Z,6.10
2018-12-06T02:41:39.433Z,5.97
2018-12-06T02:44:11.519Z,6.97
2018-12-06T02:46:42.421Z,5.27
2018-12-06T02:49:13.265Z,7.53
2018-12-06T02:51:43.249Z,6.60
2018-12-06T02:54:14.615Z,6.70
2018-12-06T02:56:43.552Z,7.03
2018-12-06T02:59:13.977Z,5.47
2018-12-06T03:01:43.305Z,5.03
2018-12-06T03:04:17.814Z,6.50
2018-12-06T03:06:50.419Z,7.57
2018-12-06T03:09:21.218Z,6.63
2018-12-06T03:11:51.619Z,9.10
2018-12-06T03:14:25.032Z,6.30
2018-12-06T03:16:57.553Z,5.73
2018-12-06T03:19:27.675Z,7.85
2018-12-06T03:21:56.609Z,9.73
2018-12-06T03:24:25.667Z,7.87
2018-12-06T03:26:54.510Z,6.37
2018-12-06T03:29:24.363Z,7.57
2018-12-06T03:31:54.589Z,7.30
2018-12-06T03:34:23.842Z,8.43
2018-12-06T03:36:52.669Z,9.90
2018-12-06T03:39:21.549Z,6.83
2018-12-06T03:41:53.535Z,10.53
2018-12-06T03:44:26.183Z,6.13
2018-12-06T03:46:56.902Z,5.40
2018-12-06T03:49:34.971Z,6.17
2018-12-06T03:52:05.661Z,7.43
2018-12-06T03:54:36.600Z,10.07
2018-12-06T03:57:12.631Z,7.23
2018-12-06T03:59:41.591Z,6.23
2018-12-06T04:02:10.486Z,7.10
2018-12-06T04:04:39.646Z,6.27
2018-12-06T04:07:09.134Z,5.47
2018-12-06T04:09:39.834Z,5.50
2018-12-06T04:12:12.020Z,7.83
2018-12-06T04:14:42.146Z,5.30
2018-12-06T04:17:11.006Z,7.07
2018-12-06T04:23:04.413Z,7.10
2018-12-06T04:25:34.074Z,4.83
2018-12-06T04:28:05.692Z,6.33
2018-12-06T04:30:38.150Z,4.63
2018-12-06T04:33:20.701Z,6.07
2018-12-06T04:35:59.624Z,4.00
2018-12-06T04:38:33.696Z,5.97
2018-12-06T04:41:05.689Z,4.90
2018-12-06T04:43:36.809Z,5.43
2018-12-06T04:46:05.945Z,7.73
2018-12-06T04:48:34.790Z,7.60
2018-12-06T04:51:04.176Z,5.20
2018-12-06T04:53:33.030Z,4.50
2018-12-06T04:56:04.060Z,8.60
2018-12-06T04:58:33.614Z,4.77
2018-12-06T05:01:02.495Z,4.97
2018-12-06T05:03:31.573Z,4.73
2018-12-06T05:06:00.504Z,8.33
2018-12-06T05:08:29.361Z,5.30
2018-12-06T05:11:06.996Z,5.63
2018-12-06T05:13:36.181Z,6.20
2018-12-06T05:16:13.080Z,5.03
2018-12-06T05:18:43.793Z,9.30
2018-12-06T05:21:21.560Z,4.80
2018-12-06T05:23:58.479Z,9.40
2018-12-06T05:26:37.340Z,7.23
2018-12-06T05:29:10.174Z,8.87
2018-12-06T05:31:41.700Z,8.10
2018-12-06T05:34:14.759Z,9.70
2018-12-06T05:36:44.463Z,9.27
2018-12-06T05:39:13.397Z,8.40
2018-12-06T05:41:42.341Z,6.33
2018-12-06T05:44:14.645Z,11.73
2018-12-06T05:46:46.337Z,12.03
2018-12-06T05:49:16.018Z,8.20
2018-12-06T05:51:45.058Z,9.53
2018-12-06T05:54:15.409Z,7.70
2018-12-06T05:56:44.280Z,10.13
2018-12-06T05:59:13.130Z,13.33
2018-12-06T06:01:42.378Z,11.10
2018-12-06T06:04:14.137Z,12.50
2018-12-06T06:06:43.503Z,15.53
2018-12-06T06:09:12.721Z,10.17
2018-12-06T06:11:41.602Z,11.20
2018-12-06T06:14:11.303Z,12.70
2018-12-06T06:16:40.197Z,10.13
2018-12-06T06:19:10.248Z,13.23
2018-12-06T06:21:40.114Z,10.17
2018-12-06T06:24:09.052Z,12.87
2018-12-06T06:26:38.243Z,8.67
2018-12-06T06:29:08.124Z,9.57
2018-12-06T06:31:37.212Z,9.70
2018-12-06T06:34:06.150Z,7.80
2018-12-06T06:36:35.859Z,6.30
2018-12-06T06:39:14.471Z,7.30
2018-12-06T06:41:48.823Z,7.13
2018-12-06T06:44:23.583Z,7.97
2018-12-06T06:46:59.114Z,8.07
2018-12-06T06:49:27.993Z,5.73
2018-12-06T06:52:01.496Z,6.90
2018-12-06T06:54:31.635Z,8.77
2018-12-06T06:57:02.315Z,6.20
2018-12-06T06:59:39.534Z,11.93
2018-12-06T07:02:11.190Z,8.70
2018-12-06T07:04:46.305Z,19.83
2018-12-06T07:07:15.201Z,6.13
2018-12-06T07:09:44.367Z,11.00
2018-12-06T07:12:16.605Z,6.03
2018-12-06T07:14:49.304Z,5.83
2018-12-06T07:17:20.956Z,4.93
2018-12-06T07:19:49.986Z,8.93
2018-12-06T07:22:19.940Z,9.60
2018-12-06T07:24:50.985Z,4.40
2018-12-06T07:27:26.563Z,5.17
2018-12-06T07:30:12.780Z,6.70
2018-12-06T07:39:40.844Z,5.80
2018-12-06T07:42:12.126Z,5.23
2018-12-06T07:44:54.830Z,4.93
2018-12-06T07:47:28.377Z,3.63
2018-12-06T07:50:01.095Z,3.30
2018-12-06T07:52:31.170Z,3.27
2018-12-06T07:55:02.013Z,6.67
2018-12-06T07:57:31.293Z,4.87
2018-12-06T08:00:00.853Z,2.43
2018-12-06T08:02:29.788Z,6.60
2018-12-06T08:04:59.774Z,3.03
2018-12-06T08:07:29.469Z,6.07
2018-12-06T08:09:59.809Z,5.37
2018-12-06T08:12:29.786Z,5.53
2018-12-06T08:14:59.172Z,3.07
2018-12-06T08:17:28.988Z,6.77
2018-12-06T08:22:38.133Z,5.43
2018-12-06T08:25:12.135Z,6.77
2018-12-06T08:27:41.005Z,3.93
2018-12-06T08:30:10.299Z,4.00
2018-12-06T08:32:42.806Z,3.30
2018-12-06T08:35:13.337Z,2.67
2018-12-06T08:37:44.773Z,6.47
2018-12-06T08:40:18.036Z,3.63
2018-12-06T08:42:51.269Z,3.10
2018-12-06T08:45:20.536Z,5.70
2018-12-06T08:47:50.000Z,2.50
2018-12-06T08:50:21.902Z,2.93
2018-12-06T08:52:56.509Z,3.20
2018-12-06T08:55:29.658Z,3.97
2018-12-06T08:57:59.579Z,5.27
2018-12-06T09:00:28.975Z,3.23
2018-12-06T09:02:57.895Z,5.70
2018-12-06T09:05:26.853Z,2.20
2018-12-06T09:07:56.218Z,2.33
2018-12-06T09:10:26.182Z,3.63
2018-12-06T09:12:58.593Z,4.73
2018-12-06T09:15:28.259Z,4.07
2018-12-06T09:17:57.658Z,3.03
2018-12-06T09:20:28.295Z,4.40
2018-12-06T09:25:51.010Z,4.30
2018-12-06T09:28:21.165Z,3.77
2018-12-06T09:31:01.193Z,3.53
2018-12-06T09:33:33.580Z,8.83
2018-12-06T09:36:09.845Z,4.20
2018-12-06T09:38:44.811Z,3.70
2018-12-06T09:41:17.558Z,2.93
2018-12-06T09:43:54.590Z,7.80
2018-12-06T09:46:32.599Z,4.47
2018-12-06T09:49:11.224Z,5.53
2018-12-06T09:51:44.875Z,4.33
2018-12-06T09:54:20.264Z,1.97
2018-12-06T09:56:56.693Z,5.73
2018-12-06T09:59:28.398Z,4.03
2018-12-06T10:02:04.790Z,2.83
2018-12-06T10:04:41.579Z,5.27
2018-12-06T10:07:11.839Z,2.47
2018-12-06T10:09:47.384Z,5.13
2018-12-06T10:12:21.690Z,4.53
2018-12-06T10:15:03.086Z,2.30
2018-12-06T10:17:32.922Z,3.53
2018-12-06T10:20:03.241Z,3.60
2018-12-06T10:22:32.101Z,4.37
2018-12-06T10:25:01.419Z,4.40
2018-12-06T10:27:30.537Z,5.13
2018-12-06T10:30:05.457Z,3.60
2018-12-06T10:32:34.863Z,4.13
2018-12-06T10:35:04.742Z,4.33
2018-12-06T10:37:34.443Z,4.20
2018-12-06T10:40:06.032Z,3.93
2018-12-06T10:42:35.070Z,4.57
2018-12-06T10:45:05.758Z,4.47
2018-12-06T10:47:37.280Z,4.10
2018-12-06T10:50:10.890Z,4.47
2018-12-06T10:52:41.733Z,5.37
2018-12-06T10:55:11.178Z,4.97
2018-12-06T10:57:41.506Z,5.70
2018-12-06T11:00:14.973Z,6.23
2018-12-06T11:02:49.375Z,5.37
2018-12-06T11:05:21.176Z,4.60
2018-12-06T11:07:52.435Z,6.63
2018-12-06T11:10:23.506Z,4.73
2018-12-06T11:13:00.327Z,4.20
2018-12-06T11:18:23.074Z,3.93
2018-12-06T11:20:53.159Z,4.20
2018-12-06T11:23:24.484Z,4.20
2018-12-06T11:25:56.912Z,4.17
2018-12-06T11:28:29.054Z,6.13
2018-12-06T11:30:59.886Z,5.50
2018-12-06T11:33:31.639Z,5.33
2018-12-06T11:36:00.582Z,4.10
2018-12-06T11:38:30.755Z,4.17
2018-12-06T11:41:02.876Z,4.90
2018-12-06T11:43:33.942Z,4.77
2018-12-06T11:46:04.058Z,4.47
2018-12-06T11:48:36.642Z,4.27
2018-12-06T11:51:08.644Z,8.00
2018-12-06T11:53:43.393Z,4.43
2018-12-06T11:56:17.985Z,3.43
2018-12-06T11:58:53.427Z,3.80
2018-12-06T12:01:26.347Z,3.23
2018-12-06T12:03:57.186Z,2.27
2018-12-06T12:06:28.412Z,3.60
2018-12-06T12:08:57.460Z,3.07
2018-12-06T12:11:31.025Z,3.50
2018-12-06T12:14:00.369Z,2.93
2018-12-06T12:16:32.102Z,5.10
2018-12-06T12:19:01.339Z,3.37
2018-12-06T12:21:35.634Z,5.07
2018-12-06T12:24:05.785Z,3.83
2018-12-06T12:26:38.576Z,4.33
2018-12-06T12:29:07.722Z,2.70
2018-12-06T12:31:40.677Z,3.27
2018-12-06T12:34:12.597Z,3.67
2018-12-06T12:36:42.416Z,3.93
2018-12-06T12:39:14.735Z,8.93
2018-12-06T12:41:45.510Z,2.40
2018-12-06T12:44:17.819Z,3.13
2018-12-06T12:46:46.798Z,3.17
2018-12-06T12:49:16.750Z,2.63
2018-12-06T12:51:48.045Z,2.80
2018-12-06T12:54:18.675Z,4.47
2018-12-06T12:56:48.642Z,5.10
2018-12-06T12:59:17.659Z,4.33
2018-12-06T13:01:55.600Z,2.77
2018-12-06T13:04:25.806Z,3.30
2018-12-06T13:06:55.159Z,2.50
2018-12-06T13:09:26.221Z,4.73
2018-12-06T13:11:56.498Z,2.93
2018-12-06T13:14:25.982Z,3.00
2018-12-06T13:16:57.432Z,4.23
2018-12-06T13:19:26.533Z,5.67
2018-12-06T13:22:00.074Z,5.77
2018-12-06T13:24:31.505Z,5.17
2018-12-06T13:27:05.735Z,4.43
2018-12-06T13:29:37.487Z,2.87
2018-12-06T13:32:07.939Z,5.73
2018-12-06T13:34:37.531Z,4.73
2018-12-06T13:37:09.044Z,4.43
2018-12-06T13:39:39.094Z,7.93
2018-12-06T13:42:10.406Z,5.43
2018-12-06T13:44:44.156Z,6.63
2018-12-06T13:47:18.495Z,3.67
2018-12-06T13:49:51.348Z,3.97
2018-12-06T13:52:22.809Z,5.83
2018-12-06T13:54:55.869Z,5.30
2018-12-06T13:57:31.666Z,6.97
2018-12-06T14:00:02.306Z,4.10
2018-12-06T14:02:32.463Z,6.07
2018-12-06T14:05:02.574Z,5.73
2018-12-06T14:07:31.633Z,4.80
2018-12-06T14:10:02.138Z,4.57
2018-12-06T14:12:32.018Z,4.60
2018-12-06T14:15:00.949Z,3.70
2018-12-06T14:17:32.005Z,5.07
2018-12-06T14:22:42.114Z,2.70
2018-12-06T14:25:11.002Z,5.67
2018-12-06T14:27:40.071Z,3.97
2018-12-06T14:30:09.230Z,3.63
2018-12-06T14:32:38.872Z,3.60
2018-12-06T14:35:08.754Z,4.17
2018-12-06T14:37:38.666Z,6.00
2018-12-06T14:40:07.721Z,6.70
2018-12-06T14:42:38.040Z,5.13
2018-12-06T14:45:10.355Z,5.77
2018-12-06T14:47:42.666Z,7.97
2018-12-06T14:50:12.449Z,6.67
2018-12-06T14:52:42.302Z,9.43
2018-12-06T14:55:11.939Z,7.60
2018-12-06T14:57:41.979Z,7.50
2018-12-06T15:00:12.822Z,5.93
2018-12-06T15:02:42.557Z,10.17
2018-12-06T15:05:11.719Z,9.33
2018-12-06T15:07:41.675Z,7.80
2018-12-06T15:10:10.621Z,8.03
2018-12-06T15:12:39.537Z,7.17
2018-12-06T15:15:09.486Z,6.67
2018-12-06T15:17:38.378Z,4.20
2018-12-06T15:20:08.385Z,3.73
2018-12-06T15:22:40.448Z,5.00
2018-12-06T15:25:10.485Z,5.50
2018-12-06T15:27:39.845Z,4.47
2018-12-06T15:30:11.978Z,4.37
2018-12-06T15:32:41.252Z,5.37
2018-12-06T15:35:12.191Z,5.70
2018-12-06T15:37:44.253Z,6.20
2018-12-06T15:40:14.163Z,4.10
2018-12-06T15:42:44.207Z,6.07
2018-12-06T15:45:15.853Z,6.30
2018-12-06T15:47:50.584Z,9.53
2018-12-06T15:50:22.333Z,11.10
2018-12-06T15:52:53.993Z,11.53
2018-12-06T15:58:10.194Z,13.73
2018-12-06T16:00:40.547Z,8.23
2018-12-06T16:03:12.143Z,8.33
2018-12-06T16:05:43.485Z,10.70
2018-12-06T16:08:19.243Z,7.33
2018-12-06T16:10:49.390Z,11.70
2018-12-06T16:13:19.196Z,7.00
2018-12-06T16:15:48.620Z,8.23
2018-12-06T16:18:18.164Z,7.47
2018-12-06T16:20:47.640Z,7.65
2018-12-06T16:23:17.178Z,4.93
2018-12-06T16:25:46.662Z,6.47
2018-12-06T16:28:16.049Z,6.73
2018-12-06T16:30:45.563Z,6.07
2018-12-06T16:33:15.286Z,6.17
2018-12-06T16:35:46.445Z,8.63
2018-12-06T16:38:17.542Z,5.00
2018-12-06T16:40:47.209Z,4.47
2018-12-06T16:43:16.750Z,5.07
2018-12-06T16:48:47.928Z,5.60
2018-12-06T16:51:21.926Z,5.97
2018-12-06T16:54:18.066Z,9.00
2018-12-06T16:56:58.480Z,5.93
2018-12-06T16:59:29.400Z,6.83
2018-12-06T17:02:00.802Z,4.80
2018-12-06T17:04:34.969Z,7.37
2018-12-06T17:07:14.388Z,3.83
2018-12-06T17:09:51.754Z,7.00
2018-12-06T17:12:31.956Z,8.87
2018-12-06T17:15:08.992Z,7.60
2018-12-06T17:17:47.394Z,11.33
2018-12-06T17:20:22.487Z,4.23
2018-12-06T17:22:53.718Z,3.57
2018-12-06T17:25:23.434Z,8.00
2018-12-06T17:27:54.019Z,7.60
2018-12-06T17:30:27.565Z,6.23
2018-12-06T17:33:02.448Z,7.53
2018-12-06T17:35:37.420Z,4.13
2018-12-06T17:38:09.480Z,4.27
2018-12-06T17:40:39.211Z,4.23
2018-12-06T17:43:09.018Z,6.93
2018-12-06T17:45:44.789Z,4.77
2018-12-06T17:48:18.861Z,3.33
2018-12-06T17:50:48.548Z,3.40
2018-12-06T17:53:21.845Z,5.20
2018-12-06T17:55:56.594Z,4.83
2018-12-06T17:58:26.189Z,3.33
2018-12-06T18:00:58.186Z,5.77
2018-12-06T18:03:28.077Z,4.63
2018-12-06T18:05:57.766Z,5.73
2018-12-06T18:08:27.454Z,4.07
2018-12-06T18:10:57.815Z,3.03
2018-12-06T18:13:29.219Z,7.00
2018-12-06T18:16:00.199Z,5.07
2018-12-06T18:18:29.552Z,5.03
2018-12-06T18:21:01.467Z,3.53
2018-12-06T18:23:31.867Z,4.20
2018-12-06T18:26:03.694Z,7.27
2018-12-06T18:28:37.748Z,5.73
2018-12-06T18:31:07.919Z,4.47
2018-12-06T18:33:40.970Z,4.87
2018-12-06T18:36:17.347Z,6.17
2018-12-06T18:38:46.419Z,5.50
2018-12-06T18:41:18.212Z,6.50
2018-12-06T18:43:53.824Z,5.93
2018-12-06T18:46:30.684Z,3.77
2018-12-06T18:49:12.609Z,8.50
2018-12-06T18:51:49.168Z,4.73
2018-12-06T18:54:26.947Z,5.67
2018-12-06T18:57:05.106Z,6.27
2018-12-06T18:59:38.599Z,6.63
2018-12-06T19:02:10.342Z,4.10
2018-12-06T19:04:40.891Z,5.07
2018-12-06T19:07:17.611Z,4.40
2018-12-06T19:09:49.471Z,5.53
2018-12-06T19:15:02.508Z,6.20
2018-12-06T19:17:40.782Z,4.80
2018-12-06T19:20:12.226Z,6.20
2018-12-06T19:22:41.920Z,7.33
2018-12-06T19:25:11.957Z,6.40
2018-12-06T19:27:45.914Z,5.80
2018-12-06T19:30:16.410Z,6.63
2018-12-06T19:33:03.224Z,6.23
2018-12-06T19:35:32.861Z,3.03
2018-12-06T19:38:03.064Z,7.33
2018-12-06T19:40:32.527Z,4.33
2018-12-06T19:43:01.517Z,4.93
2018-12-06T19:45:32.931Z,6.20
2018-12-06T19:48:02.445Z,6.17
2018-12-06T19:50:32.620Z,4.00
2018-12-06T19:53:04.404Z,6.57
2018-12-06T19:55:33.314Z,4.87
2018-12-06T19:58:02.895Z,4.97
2018-12-06T20:00:36.155Z,5.63
2018-12-06T20:03:07.004Z,3.63
2018-12-06T20:05:40.015Z,6.37
2018-12-06T20:08:09.731Z,6.37
2018-12-06T20:10:41.247Z,5.60
2018-12-06T20:13:13.572Z,7.00
2018-12-06T20:15:44.824Z,5.13
2018-12-06T20:18:20.646Z,6.97
2018-12-06T20:20:53.007Z,4.83
2018-12-06T20:23:22.567Z,4.43
2018-12-06T20:25:53.752Z,6.53
2018-12-06T20:28:26.442Z,4.90
2018-12-06T20:30:56.289Z,4.30
2018-12-06T20:33:27.600Z,4.40
2018-12-06T20:36:01.714Z,6.13
2018-12-06T20:38:31.784Z,6.87
2018-12-06T20:41:04.672Z,6.63
2018-12-06T20:43:43.816Z,7.07
2018-12-06T20:46:15.490Z,4.93
2018-12-06T20:48:47.681Z,8.87
2018-12-06T20:51:18.102Z,8.23
2018-12-06T20:53:48.396Z,11.90
2018-12-06T20:56:19.662Z,7.70
2018-12-06T21:02:24.136Z,9.87
2018-12-06T21:05:07.965Z,12.63
2018-12-06T21:07:52.711Z,8.17
2018-12-06T21:10:37.623Z,11.60
2018-12-06T21:13:20.019Z,9.17
2018-12-06T21:15:56.021Z,10.97
2018-12-06T21:18:42.628Z,8.33
2018-12-06T21:21:37.640Z,7.17
2018-12-06T21:24:26.002Z,8.40
2018-12-06T21:27:09.221Z,8.77
2018-12-06T21:32:43.583Z,7.80
2018-12-06T21:35:53.783Z,8.40
2018-12-06T21:38:32.427Z,7.60
2018-12-06T21:41:13.483Z,5.33
2018-12-06T21:43:51.303Z,8.87
2018-12-06T21:46:32.705Z,6.87
2018-12-06T21:49:25.827Z,7.80
2018-12-06T21:52:10.723Z,7.17
2018-12-06T21:54:46.566Z,5.00
2018-12-06T21:57:28.980Z,9.70
2018-12-06T22:00:13.296Z,8.03
2018-12-06T22:05:49.113Z,7.73
2018-12-06T22:08:51.352Z,10.73
2018-12-06T22:11:32.637Z,9.77
2018-12-06T22:20:46.715Z,9.57
2018-12-06T22:26:43.279Z,7.43
2018-12-06T22:29:27.262Z,9.07
2018-12-06T22:32:09.542Z,8.90
2018-12-06T22:34:57.902Z,10.13
2018-12-06T22:37:54.882Z,9.27
2018-12-06T22:48:03.414Z,8.10
2018-12-06T22:50:42.521Z,7.60
2018-12-06T22:53:16.460Z,9.10
2018-12-06T22:56:05.440Z,8.40
2018-12-06T22:58:42.511Z,7.80
2018-12-06T23:04:15.185Z,7.50
2018-12-06T23:06:53.004Z,13.00
2018-12-06T23:09:54.755Z,9.73
2018-12-06T23:12:37.034Z,11.97
2018-12-06T23:15:08.621Z,23.27
2018-12-06T23:17:48.402Z,23.90
2018-12-06T23:20:26.587Z,11.80
2018-12-06T23:23:02.334Z,13.62
2018-12-06T23:25:36.170Z,11.70
2018-12-06T23:28:18.827Z,10.17
2018-12-06T23:30:52.724Z,10.73
2018-12-06T23:33:31.802Z,8.10
2018-12-06T23:36:09.030Z,7.90
2018-12-06T23:38:49.456Z,10.63
2018-12-06T23:41:29.100Z,9.87
2018-12-06T23:44:10.032Z,8.67
2018-12-06T23:46:50.128Z,11.93
2018-12-06T23:49:29.431Z,7.87
2018-12-06T23:52:01.522Z,5.50
2018-12-06T23:54:31.267Z,8.10
2018-12-06T23:57:00.082Z,8.23
2018-12-06T23:59:28.986Z,10.87
